Time;durP1;ratioP1;P1;durP2;ratioP2;P2;SDS_P1;SDS_P2;PMS_P1;PMS_P2;Temp;Humidity;BMP_temperature;BMP_pressure;BME280_temperature;BME280_humidity;BME280_pressure;Samples;Min_cycle;Max_cycle;Signal;HPM_P1;HPM_P2
2022/12/01 00:00:39;;;;;;;16.77;8.63;;;;;;;14.74;49.45;102356.03;5096550;28;20443;-60
2022/12/01 00:03:04;;;;;;;15.52;8.15;;;;;;;14.74;48.84;102362.25;5081209;28;20031;-61
2022/12/01 00:05:30;;;;;;;16.33;9.32;;;;;;;14.73;49.08;102360.53;5096617;28;20024;-60
2022/12/01 00:07:57;;;;;;;21.35;9.07;;;;;;;14.77;49.06;102351.22;5115390;28;20454;-61
2022/12/01 00:10:26;;;;;;;17.70;8.43;;;;;;;14.74;49.49;102345.22;5093159;28;20102;-61
2022/12/01 00:12:56;;;;;;;16.60;8.23;;;;;;;14.75;50.21;102355.03;5092512;28;20489;-62
2022/12/01 00:15:24;;;;;;;19.65;8.45;;;;;;;14.74;49.69;102356.03;5092470;28;20031;-60
2022/12/01 00:17:50;;;;;;;22.48;8.55;;;;;;;14.74;48.69;102353.31;5092866;28;20484;-61
2022/12/01 00:20:16;;;;;;;19.58;8.45;;;;;;;14.71;48.94;102353.56;5093095;28;20024;-60
2022/12/01 00:22:42;;;;;;;22.42;8.60;;;;;;;14.70;49.49;102343.72;5109646;28;20079;-61
2022/12/01 00:25:08;;;;;;;23.83;9.65;;;;;;;14.71;49.44;102361.66;5069393;28;20423;-61
2022/12/01 00:27:33;;;;;;;24.85;9.45;;;;;;;14.71;50.12;102353.56;5093466;28;20024;-60
2022/12/01 00:29:59;;;;;;;17.63;8.07;;;;;;;14.70;49.63;102346.44;5112533;28;20044;-60
2022/12/01 00:32:24;;;;;;;20.35;8.88;;;;;;;14.68;48.87;102351.09;5094451;28;20033;-60
2022/12/01 00:34:49;;;;;;;20.90;8.00;;;;;;;14.69;50.01;102355.50;5108407;28;20536;-60
2022/12/01 00:37:14;;;;;;;19.95;7.30;;;;;;;14.68;48.81;102357.34;5111279;28;20484;-60
2022/12/01 00:39:40;;;;;;;21.23;8.35;;;;;;;14.67;48.75;102347.53;5092470;28;20495;-61
2022/12/01 00:42:05;;;;;;;19.27;7.93;;;;;;;14.67;49.33;102349.34;5098328;28;20490;-60
2022/12/01 00:44:31;;;;;;;17.98;7.50;;;;;;;14.67;49.05;102342.13;5066543;28;20476;-60
2022/12/01 00:46:56;;;;;;;19.95;8.77;;;;;;;14.64;49.65;102346.91;5098802;28;20035;-60
2022/12/01 00:49:21;;;;;;;19.33;7.95;;;;;;;14.67;49.58;102352.94;5097620;28;20098;-60
2022/12/01 00:51:47;;;;;;;22.27;9.73;;;;;;;14.66;49.11;102350.31;5099255;28;20096;-60
2022/12/01 00:54:12;;;;;;;22.42;9.10;;;;;;;14.64;48.92;102344.19;5081630;28;20036;-59
2022/12/01 00:56:37;;;;;;;19.95;8.82;;;;;;;14.63;49.87;102343.34;5098694;28;20531;-60
2022/12/01 00:59:03;;;;;;;22.25;9.15;;;;;;;14.63;50.01;102342.50;5099144;28;20019;-61
2022/12/01 01:01:28;;;;;;;19.27;8.50;;;;;;;14.61;49.46;102341.75;5099148;28;20027;-59
2022/12/01 01:03:53;;;;;;;20.98;8.95;;;;;;;14.60;48.90;102340.03;5098767;28;20028;-60
2022/12/01 01:06:19;;;;;;;20.92;8.35;;;;;;;14.64;48.85;102346.91;5081725;28;20028;-60
2022/12/01 01:08:45;;;;;;;21.40;8.90;;;;;;;14.64;50.40;102344.19;5098420;28;20016;-59
2022/12/01 01:11:11;;;;;;;23.95;9.88;;;;;;;14.62;49.66;102343.47;5099340;28;20115;-60
2022/12/01 01:13:37;;;;;;;27.55;9.75;;;;;;;14.63;49.30;102351.44;5081925;28;20500;-61
2022/12/01 01:16:04;;;;;;;18.98;9.00;;;;;;;14.65;49.37;102356.72;5098231;28;20110;-60
2022/12/01 01:18:30;;;;;;;25.17;10.07;;;;;;;14.62;50.05;102359.66;5116538;28;20035;-60
2022/12/01 01:20:56;;;;;;;22.55;8.20;;;;;;;14.63;49.38;102362.22;5081514;28;20084;-60
2022/12/01 01:23:22;;;;;;;27.10;9.65;;;;;;;14.62;49.66;102365.03;5116860;28;20023;-60
2022/12/01 01:25:47;;;;;;;25.02;9.57;;;;;;;14.63;49.94;102366.78;5098077;28;20462;-60
2022/12/01 01:28:12;;;;;;;22.65;8.95;;;;;;;14.64;49.62;102373.88;5097475;28;20035;-60
2022/12/01 01:30:38;;;;;;;21.10;8.88;;;;;;;14.63;49.73;102369.47;5098323;28;20028;-61
2022/12/01 01:33:04;;;;;;;19.48;9.38;;;;;;;14.58;49.99;102367.97;5116188;28;20031;-61
2022/12/01 01:35:29;;;;;;;24.73;9.15;;;;;;;14.57;49.93;102368.94;5098518;28;20472;-61
2022/12/01 01:37:54;;;;;;;21.75;7.57;;;;;;;14.55;48.94;102365.50;5115739;28;20031;-61
2022/12/01 01:40:20;;;;;;;26.92;9.25;;;;;;;14.56;50.49;102378.03;5116157;28;20489;-61
2022/12/01 01:42:45;;;;;;;21.38;7.75;;;;;;;14.51;48.72;102382.06;5097561;28;20036;-60
2022/12/01 01:45:20;;;;;;;20.73;8.02;;;;;;;14.50;50.23;102370.41;5098144;28;20027;-61
2022/12/01 01:47:45;;;;;;;26.58;8.25;;;;;;;14.47;49.30;102378.72;5080402;28;20411;-61
2022/12/01 01:50:13;;;;;;;21.00;8.13;;;;;;;14.47;49.69;102378.72;5098140;28;20019;-61
2022/12/01 01:52:44;;;;;;;19.17;7.43;;;;;;;14.45;49.04;102375.28;5097517;28;20079;-60
2022/12/01 01:55:09;;;;;;;17.23;7.70;;;;;;;14.45;49.38;102375.28;5097737;28;20065;-61
2022/12/01 01:57:35;;;;;;;23.70;7.75;;;;;;;14.43;49.62;102382.59;5080751;28;20492;-60
2022/12/01 02:00:08;;;;;;;17.80;7.30;;;;;;;14.43;50.65;102384.47;5080362;28;20032;-60
2022/12/01 02:02:39;;;;;;;18.75;7.53;;;;;;;14.42;50.02;102390.81;5097759;28;20036;-60
2022/12/01 02:05:09;;;;;;;24.88;7.93;;;;;;;14.44;50.29;102389.72;5097994;28;20408;-60
2022/12/01 02:07:36;;;;;;;22.80;8.05;;;;;;;14.43;50.21;102388.00;5080840;28;20089;-60
2022/12/01 02:10:02;;;;;;;18.83;7.30;;;;;;;14.43;49.79;102382.59;5080217;28;20035;-61
2022/12/01 02:12:55;;;;;;;25.17;7.55;;;;;;;14.45;49.97;102386.06;5097492;28;20028;-60
2022/12/01 02:15:39;;;;;;;15.90;7.35;;;;;;;14.42;50.34;102383.59;5097307;28;20431;-60
2022/12/01 02:18:20;;;;;;;14.48;6.57;;;;;;;14.41;48.89;102384.56;5097285;28;20052;-59
2022/12/01 02:21:23;;;;;;;18.45;8.05;;;;;;;14.41;50.52;102387.25;5114977;28;20016;-59
2022/12/01 02:24:19;;;;;;;17.35;7.30;;;;;;;14.40;50.62;102392.78;5096898;28;20026;-60
2022/12/01 02:27:00;;;;;;;17.83;7.75;;;;;;;14.38;48.87;102387.50;5096757;28;20480;-61
2022/12/01 02:29:38;;;;;;;18.23;7.07;;;;;;;14.37;49.10;102383.09;5097729;28;20076;-61
2022/12/01 02:32:25;;;;;;;27.42;8.75;;;;;;;14.36;48.97;102386.75;5097092;28;20048;-61
2022/12/01 02:35:18;;;;;;;21.10;8.35;;;;;;;14.34;49.41;102386.03;5096578;28;20028;-61
2022/12/01 02:38:00;;;;;;;21.48;7.85;;;;;;;14.31;50.42;102386.22;5115484;28;20040;-60
2022/12/01 02:40:38;;;;;;;21.67;9.10;;;;;;;14.32;50.22;102382.56;5076318;28;20032;-61
2022/12/01 02:43:42;;;;;;;24.85;8.68;;;;;;;14.34;48.98;102383.31;5094617;28;20514;-60
2022/12/01 02:46:25;;;;;;;;;;;;;;;14.34;48.97;102380.63;5060653;28;20029;-61
2022/12/01 02:48:53;;;;;;;17.27;7.72;;;;;;;14.35;48.99;102385.03;5076432;28;20000;-60
2022/12/01 02:51:29;;;;;;;20.98;7.30;;;;;;;14.33;49.73;102384.28;5059614;28;20036;-61
2022/12/01 02:53:56;;;;;;;18.80;8.27;;;;;;;14.37;50.31;102383.09;5063084;28;20048;-60
2022/12/01 02:56:22;;;;;;;21.20;8.35;;;;;;;14.39;50.20;102380.28;5076990;28;20111;-60
2022/12/01 02:58:48;;;;;;;23.83;9.73;;;;;;;14.40;50.29;102380.16;5093190;28;20036;-60
2022/12/01 03:01:22;;;;;;;29.63;9.82;;;;;;;14.41;49.91;102384.56;5094464;28;20036;-60
2022/12/01 03:03:56;;;;;;;26.83;9.07;;;;;;;14.40;49.72;102382.88;5094627;28;20088;-60
2022/12/01 03:06:48;;;;;;;30.42;10.07;;;;;;;14.40;48.91;102390.97;5076262;28;20032;-61
2022/12/01 03:09:32;;;;;;;28.70;9.30;;;;;;;14.37;48.86;102388.50;5075836;28;20036;-60
2022/12/01 03:12:27;;;;;;;30.00;8.80;;;;;;;14.34;50.47;102387.84;5093489;28;20521;-60
2022/12/01 03:15:07;;;;;;;32.88;12.13;;;;;;;14.29;49.71;102390.84;5076302;28;20040;-61
2022/12/01 03:18:00;;;;;;;39.75;11.50;;;;;;;14.27;49.32;102386.53;5094568;28;20024;-60
2022/12/01 03:20:41;;;;;;;34.95;11.93;;;;;;;14.26;49.29;102391.09;5094460;28;20075;-60
2022/12/01 03:23:18;;;;;;;29.00;9.82;;;;;;;14.21;49.54;102382.47;5076263;28;20595;-61
2022/12/01 03:25:47;;;;;;;39.55;10.95;;;;;;;14.24;49.75;102386.75;5092691;28;20523;-60
2022/12/01 03:28:16;;;;;;;30.92;9.90;;;;;;;14.22;49.36;102384.19;5075156;28;20051;-60
2022/12/01 03:30:42;;;;;;;34.72;13.48;;;;;;;14.23;50.93;102388.63;5075808;28;20115;-60
2022/12/01 03:33:11;;;;;;;30.40;11.00;;;;;;;14.24;49.34;102384.94;5058825;28;20397;-61
2022/12/01 03:35:51;;;;;;;39.75;11.27;;;;;;;14.22;50.39;102384.19;5094526;28;20034;-60
2022/12/01 03:38:22;;;;;;;41.38;11.30;;;;;;;14.22;49.95;102392.28;5076098;28;20040;-60
2022/12/01 03:40:48;;;;;;;35.03;10.93;;;;;;;14.21;49.46;102387.84;5075959;28;20082;-61
2022/12/01 03:43:18;;;;;;;34.85;11.75;;;;;;;14.19;50.09;102381.72;5075495;28;20028;-61
2022/12/01 03:46:09;;;;;;;32.90;11.52;;;;;;;14.21;49.40;102387.84;5075685;28;20040;-61
2022/12/01 03:48:36;;;;;;;40.15;11.88;;;;;;;14.20;50.45;102385.28;5058793;28;20051;-61
2022/12/01 03:51:36;;;;;;;34.58;11.82;;;;;;;14.22;50.63;102388.72;5075992;28;20028;-61
2022/12/01 03:54:11;;;;;;;43.53;11.48;;;;;;;14.19;49.98;102386.25;5073440;28;20039;-60
2022/12/01 03:56:44;;;;;;;39.55;10.93;;;;;;;14.19;50.18;102381.72;5076313;28;20027;-62
2022/12/01 03:59:10;;;;;;;33.75;11.50;;;;;;;14.22;50.17;102383.34;5075059;28;20489;-61
2022/12/01 04:01:35;;;;;;;33.15;11.35;;;;;;;14.24;49.68;102382.25;5058572;28;20439;-61
2022/12/01 04:04:11;;;;;;;42.60;12.48;;;;;;;14.24;50.81;102382.25;5092664;28;20024;-60
2022/12/01 04:06:39;;;;;;;44.55;13.20;;;;;;;14.22;50.38;102383.34;5075049;28;20031;-61
2022/12/01 04:09:04;;;;;;;39.08;12.30;;;;;;;14.24;50.86;102386.75;5075485;28;20035;-61
2022/12/01 04:14:14;;;;;;;42.70;11.77;;;;;;;14.22;49.81;102388.72;5091853;28;20096;-61
2022/12/01 04:16:39;;;;;;;44.35;12.93;;;;;;;14.20;49.16;102391.56;5093396;28;20024;-61
2022/12/01 04:19:05;;;;;;;34.78;11.73;;;;;;;14.22;51.03;102394.97;5075248;28;20032;-62
2022/12/01 04:21:30;;;;;;;32.78;11.70;;;;;;;14.20;50.25;102391.56;5075067;28;20024;-61
2022/12/01 04:24:01;;;;;;;43.67;12.98;;;;;;;14.19;50.43;102388.94;5094678;28;20019;-61
2022/12/01 04:26:32;;;;;;;36.53;11.93;;;;;;;14.21;50.58;102392.41;5097520;28;20024;-60
2022/12/01 04:29:03;;;;;;;34.85;10.90;;;;;;;14.19;49.22;102389.81;5078525;28;20035;-61
2022/12/01 04:31:28;;;;;;;31.30;11.77;;;;;;;14.18;49.57;102387.25;5077882;28;20059;-61
2022/12/01 04:33:55;;;;;;;30.00;12.45;;;;;;;14.20;50.36;102391.56;5062083;28;20447;-61
2022/12/01 04:36:21;;;;;;;42.03;11.02;;;;;;;14.17;50.07;102390.91;5078421;28;20442;-61
2022/12/01 04:38:46;;;;;;;39.15;11.73;;;;;;;14.17;49.38;102380.13;5095332;28;20023;-61
2022/12/01 04:41:12;;;;;;;32.03;11.32;;;;;;;14.18;50.42;102393.47;5096685;28;20024;-61
2022/12/01 04:43:38;;;;;;;32.72;10.35;;;;;;;14.17;50.19;102383.69;5078477;28;20028;-62
2022/12/01 04:46:04;;;;;;;35.42;11.13;;;;;;;14.14;50.75;102374.97;5078444;28;20031;-60
2022/12/01 04:48:30;;;;;;;39.22;10.73;;;;;;;14.14;50.49;102378.53;5078158;28;20025;-61
2022/12/01 04:50:55;;;;;;;39.95;12.05;;;;;;;14.14;51.07;102380.34;5077779;28;20027;-61
2022/12/01 04:53:21;;;;;;;34.53;10.38;;;;;;;14.14;49.87;102383.91;5070575;28;20147;-61
2022/12/01 04:55:46;;;;;;;33.45;11.07;;;;;;;14.12;50.98;102377.78;5098550;28;20044;-61
2022/12/01 04:58:11;;;;;;;35.65;11.10;;;;;;;14.11;50.22;102376.06;5116765;28;20070;-61
2022/12/01 05:00:37;;;;;;;32.50;11.23;;;;;;;14.11;49.72;102383.28;5081504;28;20039;-61
2022/12/01 05:03:02;;;;;;;35.75;11.77;;;;;;;14.06;50.29;102377.38;5098442;28;20115;-63
2022/12/01 05:05:29;;;;;;;42.25;11.38;;;;;;;14.09;50.27;102380.72;5098686;28;20098;-60
2022/12/01 05:07:54;;;;;;;31.55;11.02;;;;;;;14.06;50.05;102370.16;5098430;28;20032;-61
2022/12/01 05:10:20;;;;;;;37.03;10.75;;;;;;;14.04;50.18;102384.72;5081562;28;20557;-61
2022/12/01 05:12:45;;;;;;;39.35;12.20;;;;;;;14.04;50.11;102377.50;5098357;28;20036;-61
2022/12/01 05:15:11;;;;;;;36.90;12.13;;;;;;;14.03;50.15;102381.16;5081392;28;20133;-61
2022/12/01 05:17:37;;;;;;;42.67;11.75;;;;;;;14.05;50.94;102381.91;5098983;28;20384;-62
2022/12/01 05:22:47;;;;;;;41.53;11.90;;;;;;;14.06;51.03;102378.25;5100964;28;20047;-61
2022/12/01 05:25:12;;;;;;;42.95;12.25;;;;;;;14.06;50.67;102378.25;5098107;28;20032;-61
2022/12/01 05:27:38;;;;;;;44.75;12.27;;;;;;;14.07;50.80;102385.31;5098015;28;20023;-61
2022/12/01 05:30:04;;;;;;;34.50;11.65;;;;;;;14.10;49.51;102389.66;5081041;28;20027;-61
2022/12/01 05:32:29;;;;;;;39.30;12.30;;;;;;;14.10;49.79;102382.41;5098401;28;20036;-61
2022/12/01 05:34:55;;;;;;;44.03;14.10;;;;;;;14.11;51.32;102392.22;5115628;28;20112;-61
2022/12/01 05:37:20;;;;;;;41.47;12.50;;;;;;;14.09;50.11;102399.56;5080967;28;20077;-61
2022/12/01 05:39:45;;;;;;;40.83;13.75;;;;;;;14.10;50.77;102401.28;5098100;28;20032;-60
2022/12/01 05:42:11;;;;;;;41.35;11.52;;;;;;;14.10;50.02;102389.66;5115908;28;20039;-62
2022/12/01 05:44:36;;;;;;;46.20;12.88;;;;;;;14.10;51.01;102385.09;5098174;28;20038;-60
2022/12/01 05:47:01;;;;;;;36.28;11.77;;;;;;;14.08;50.09;102389.75;5097752;28;20027;-61
2022/12/01 05:49:27;;;;;;;46.30;13.80;;;;;;;14.07;49.96;102385.31;5080681;28;20443;-61
2022/12/01 05:51:52;;;;;;;45.53;11.57;;;;;;;14.05;50.24;102398.06;5116144;28;20027;-61
2022/12/01 05:54:18;;;;;;;37.92;12.27;;;;;;;14.01;50.60;102392.03;5115294;28;20141;-61
2022/12/01 05:56:43;;;;;;;42.13;14.63;;;;;;;14.06;51.53;102394.41;5097340;28;20378;-61
2022/12/01 05:59:09;;;;;;;39.83;11.48;;;;;;;14.01;50.75;102392.03;5098060;28;20026;-61
2022/12/01 06:01:34;;;;;;;43.80;12.70;;;;;;;14.03;49.62;102389.25;5080235;28;20442;-61
2022/12/01 06:03:59;;;;;;;40.35;12.35;;;;;;;14.06;51.39;102399.78;5097482;28;20036;-61
2022/12/01 06:06:25;;;;;;;42.42;13.55;;;;;;;14.05;49.92;102387.28;5115327;28;20495;-62
2022/12/01 06:08:50;;;;;;;37.28;12.20;;;;;;;14.08;50.89;102387.06;5096849;28;20047;-61
2022/12/01 06:11:15;;;;;;;43.58;12.55;;;;;;;14.10;49.91;102401.28;5058987;28;20031;-60
2022/12/01 06:13:41;;;;;;;38.75;12.38;;;;;;;14.09;50.98;102399.56;5056492;28;20028;-61
2022/12/01 06:16:07;;;;;;;38.30;12.85;;;;;;;14.09;49.78;102396.88;5056615;28;20521;-60
2022/12/01 06:18:35;;;;;;;40.30;11.52;;;;;;;14.15;49.81;102409.03;5056479;28;20032;-61
2022/12/01 06:21:01;;;;;;;41.13;12.45;;;;;;;14.14;49.84;102410.88;5056723;28;20040;-60
2022/12/01 06:23:26;;;;;;;43.92;12.77;;;;;;;14.18;50.36;102420.44;5075136;28;20025;-61
2022/12/01 06:25:52;;;;;;;43.85;13.32;;;;;;;14.19;50.46;102415.91;5048151;28;20028;-60
2022/12/01 06:28:17;;;;;;;44.03;14.30;;;;;;;14.18;50.32;102415.03;5077796;28;20070;-61
2022/12/01 06:30:42;;;;;;;39.47;12.70;;;;;;;14.18;50.89;102406.94;5076346;28;20519;-61
2022/12/01 06:33:08;;;;;;;42.90;14.20;;;;;;;14.18;49.81;102417.72;5060442;28;20024;-60
2022/12/01 06:35:34;;;;;;;45.10;12.82;;;;;;;14.18;50.48;102420.44;5056885;28;20027;-60
2022/12/01 06:38:00;;;;;;;39.28;12.43;;;;;;;14.19;49.81;102422.16;5039484;28;20397;-60
2022/12/01 06:40:26;;;;;;;44.15;13.88;;;;;;;14.20;51.03;102417.63;5057795;28;20115;-61
2022/12/01 06:42:51;;;;;;;42.17;12.63;;;;;;;14.18;49.71;102420.44;5072530;28;20033;-61
2022/12/01 06:45:17;;;;;;;43.00;12.77;;;;;;;14.18;50.89;102425.81;5071882;28;20402;-61
2022/12/01 06:47:42;;;;;;;48.40;12.88;;;;;;;14.20;50.83;102431.13;5078710;28;20465;-61
2022/12/01 06:50:09;;;;;;;34.97;10.60;;;;;;;14.21;49.85;102430.97;5079170;28;20043;-60
2022/12/01 06:52:35;;;;;;;40.92;10.35;;;;;;;14.17;49.47;102429.50;5078797;28;20397;-61
2022/12/01 06:55:02;;;;;;;43.03;11.98;;;;;;;14.16;49.68;102425.06;5078450;28;20039;-61
2022/12/01 06:57:28;;;;;;;33.72;12.35;;;;;;;14.18;50.42;102436.59;5078954;28;20519;-61
2022/12/01 06:59:53;;;;;;;28.90;10.05;;;;;;;14.17;50.24;102442.13;5095360;28;20024;-61
2022/12/01 07:02:18;;;;;;;37.33;11.52;;;;;;;14.16;49.70;102443.06;5113990;28;20051;-61
2022/12/01 07:04:44;;;;;;;42.67;11.52;;;;;;;14.13;50.45;102441.47;5095770;28;20031;-61
2022/12/01 07:07:10;;;;;;;40.30;12.68;;;;;;;14.13;50.18;102438.78;5095631;28;20035;-61
2022/12/01 07:09:36;;;;;;;33.05;10.23;;;;;;;14.11;49.90;102437.16;5078970;28;20488;-61
2022/12/01 07:12:01;;;;;;;36.53;9.93;;;;;;;14.10;49.53;102439.00;5095703;28;20080;-61
2022/12/01 07:14:27;;;;;;;26.50;10.10;;;;;;;14.10;49.20;102444.38;5079113;28;20115;-61
2022/12/01 07:16:52;;;;;;;33.40;10.07;;;;;;;14.10;50.55;102441.69;5095623;28;20119;-61
2022/12/01 07:19:17;;;;;;;30.15;9.13;;;;;;;14.10;50.41;102439.00;5078706;28;20034;-61
2022/12/01 07:21:43;;;;;;;22.38;8.25;;;;;;;14.10;49.80;102439.00;5113846;28;20028;-60
2022/12/01 07:24:08;;;;;;;26.30;8.70;;;;;;;14.08;49.18;102440.94;5095733;28;20038;-61
2022/12/01 07:26:34;;;;;;;31.60;8.82;;;;;;;14.10;50.56;102446.25;5095585;28;20024;-61
2022/12/01 07:28:59;;;;;;;21.40;7.97;;;;;;;14.08;49.94;102451.72;5095403;28;20085;-61
2022/12/01 07:31:25;;;;;;;25.45;9.60;;;;;;;14.11;50.74;102458.72;5095432;28;20031;-61
2022/12/01 07:33:51;;;;;;;32.25;8.23;;;;;;;14.11;49.51;102456.03;5078272;28;20028;-61
2022/12/01 07:36:16;;;;;;;29.20;9.75;;;;;;;14.12;50.29;102455.06;5078720;28;20105;-62
2022/12/01 07:38:42;;;;;;;27.05;9.32;;;;;;;14.13;50.28;102463.03;5095157;28;20027;-61
2022/12/01 07:41:08;;;;;;;27.05;8.23;;;;;;;14.16;50.26;102461.94;5095831;28;20031;-61
2022/12/01 07:43:35;;;;;;;22.85;8.77;;;;;;;14.16;49.41;102464.63;5095236;28;20467;-61
2022/12/01 07:46:12;;;;;;;28.58;9.20;;;;;;;14.14;49.98;102467.47;5095342;28;20066;-61
2022/12/01 07:48:39;;;;;;;25.23;9.30;;;;;;;14.16;50.42;102470.03;5113467;28;20039;-61
2022/12/01 07:51:05;;;;;;;26.05;8.32;;;;;;;14.15;50.27;102474.59;5095044;28;20027;-61
2022/12/01 07:53:31;;;;;;;25.50;9.35;;;;;;;14.16;49.40;102470.88;5075167;28;20048;-61
2022/12/01 07:55:57;;;;;;;28.85;9.45;;;;;;;14.17;49.81;102472.63;5058175;28;20028;-61
2022/12/01 07:58:23;;;;;;;27.25;8.82;;;;;;;14.20;48.63;102467.00;5095108;28;20029;-61
2022/12/01 08:00:48;;;;;;;26.17;8.43;;;;;;;14.23;49.69;102472.19;5095465;28;20085;-60
2022/12/01 08:03:13;;;;;;;27.55;8.45;;;;;;;14.24;49.54;102475.72;5096458;28;20089;-61
2022/12/01 08:05:39;;;;;;;25.10;9.48;;;;;;;14.23;48.57;102482.09;5095378;28;20056;-61
2022/12/01 08:08:04;;;;;;;28.17;8.93;;;;;;;14.21;49.74;102479.50;5062057;28;20031;-61
2022/12/01 08:10:30;;;;;;;27.88;8.77;;;;;;;14.22;49.64;102481.22;5078710;28;20423;-61
2022/12/01 08:12:55;;;;;;;28.52;9.38;;;;;;;14.23;49.98;102480.25;5096511;28;20032;-61
2022/12/01 08:15:20;;;;;;;26.73;8.27;;;;;;;14.24;48.98;102479.28;5062084;28;20032;-61
2022/12/01 08:17:46;;;;;;;18.55;6.40;;;;;;;14.24;50.07;102479.28;5061486;28;20028;-60
2022/12/01 08:20:11;;;;;;;20.27;6.85;;;;;;;14.22;49.53;102483.06;5096823;28;20373;-61
2022/12/01 08:22:37;;;;;;;17.50;6.55;;;;;;;14.25;49.39;102477.44;5095212;28;20036;-61
2022/12/01 08:25:03;;;;;;;20.25;7.28;;;;;;;14.26;48.95;102477.34;5078133;28;20028;-61
2022/12/01 08:27:28;;;;;;;20.35;8.40;;;;;;;14.24;48.69;102479.28;5061184;28;20031;-61
2022/12/01 08:29:53;;;;;;;22.85;7.72;;;;;;;14.21;49.40;102487.59;5078051;28;20020;-61
2022/12/01 08:32:19;;;;;;;18.15;6.72;;;;;;;14.19;49.78;102480.59;5096783;28;20149;-62
2022/12/01 08:34:44;;;;;;;25.05;7.07;;;;;;;14.21;49.95;102486.75;5096126;28;20040;-60
2022/12/01 08:37:10;;;;;;;24.80;7.18;;;;;;;14.19;48.72;102496.75;5077947;28;20028;-60
2022/12/01 08:39:35;;;;;;;25.50;8.05;;;;;;;14.23;48.66;102492.88;5077866;28;20028;-61
2022/12/01 08:42:00;;;;;;;19.23;7.22;;;;;;;14.22;49.79;102497.41;5096209;28;20048;-61
2022/12/01 08:44:26;;;;;;;23.35;7.40;;;;;;;14.23;48.88;102498.28;5078216;28;20073;-61
2022/12/01 08:46:51;;;;;;;20.60;7.43;;;;;;;14.23;48.20;102492.88;5077855;28;20028;-61
2022/12/01 08:49:16;;;;;;;22.17;7.07;;;;;;;14.26;50.08;102498.03;5077540;28;20123;-61
2022/12/01 08:51:42;;;;;;;22.55;7.45;;;;;;;14.27;49.20;102495.22;5095711;28;20028;-61
2022/12/01 08:54:09;;;;;;;25.20;8.80;;;;;;;14.29;49.68;102495.13;5070533;28;20035;-60
2022/12/01 08:56:38;;;;;;;22.08;7.82;;;;;;;14.30;49.65;102497.69;5081488;28;20513;-61
2022/12/01 08:59:04;;;;;;;28.88;8.52;;;;;;;14.30;48.92;102495.00;5081033;28;20039;-60
2022/12/01 09:01:30;;;;;;;25.23;7.38;;;;;;;14.33;49.14;102497.50;5080930;28;20397;-61
2022/12/01 09:04:07;;;;;;;23.88;6.25;;;;;;;14.37;47.95;102496.31;5080777;28;20066;-61
2022/12/01 09:06:38;;;;;;;14.45;5.43;;;;;;;14.37;48.73;102501.72;5082378;28;20498;-61
2022/12/01 09:09:03;;;;;;;19.02;6.80;;;;;;;14.39;49.28;102498.91;5080052;28;20110;-61
2022/12/01 09:11:29;;;;;;;18.23;6.28;;;;;;;14.34;48.21;102496.56;5098264;28;20480;-61
2022/12/01 09:13:54;;;;;;;27.45;7.07;;;;;;;14.40;48.96;102497.94;5097363;28;20031;-60
2022/12/01 09:16:20;;;;;;;19.63;7.80;;;;;;;14.40;48.36;102511.41;5115606;28;20028;-60
2022/12/01 09:18:46;;;;;;;13.07;5.50;;;;;;;14.39;49.25;102501.59;5080937;28;20036;-61
2022/12/01 09:21:26;;;;;;;16.45;4.90;;;;;;;14.37;48.16;102496.31;5097520;28;20496;-60
2022/12/01 09:23:52;;;;;;;15.07;5.90;;;;;;;14.35;47.98;102503.63;5097615;28;20388;-61
2022/12/01 09:26:19;;;;;;;15.40;7.30;;;;;;;14.34;48.17;102496.56;5098000;28;20016;-61
2022/12/01 09:28:51;;;;;;;19.85;6.60;;;;;;;14.36;49.05;102499.13;5097133;28;20028;-61
2022/12/01 09:31:22;;;;;;;15.95;6.03;;;;;;;14.40;47.97;102495.22;5097477;28;20038;-61
2022/12/01 09:33:48;;;;;;;21.73;6.55;;;;;;;14.41;48.38;102492.41;5081034;28;20035;-60
2022/12/01 09:36:13;;;;;;;18.27;6.70;;;;;;;14.50;47.61;102496.25;5097222;28;20381;-61
2022/12/01 09:38:38;;;;;;;19.88;6.70;;;;;;;14.52;49.07;102495.19;5080312;28;20016;-62
2022/12/01 09:41:14;;;;;;;15.23;5.88;;;;;;;14.60;48.15;102496.47;5116099;28;20027;-61
2022/12/01 09:43:44;;;;;;;20.30;7.47;;;;;;;14.64;47.99;102503.31;5096475;28;20581;-61
2022/12/01 09:46:15;;;;;;;17.02;6.50;;;;;;;14.70;49.15;102500.19;5081857;28;20114;-61
2022/12/01 09:48:42;;;;;;;18.05;6.97;;;;;;;14.73;48.18;102497.25;5093854;28;20519;-61
2022/12/01 09:51:20;;;;;;;18.25;6.63;;;;;;;14.78;48.57;102495.06;5076737;28;20158;-61
2022/12/01 09:53:48;;;;;;;24.95;7.20;;;;;;;14.81;47.95;102490.31;5075627;28;20052;-61
2022/12/01 09:56:40;;;;;;;20.00;7.13;;;;;;;14.87;48.84;102499.78;5076912;28;20016;-61
2022/12/01 09:59:07;;;;;;;17.25;6.15;;;;;;;14.88;48.47;102491.56;5060043;28;20032;-61
2022/12/01 10:01:36;;;;;;;20.30;6.03;;;;;;;14.91;48.81;102490.44;5064382;28;20037;-61
2022/12/01 10:04:10;;;;;;;14.63;7.05;;;;;;;14.95;47.68;102486.56;5039582;28;20044;-61
2022/12/01 10:07:02;;;;;;;13.93;5.93;;;;;;;14.95;46.96;102482.03;5056453;28;20029;-61
2022/12/01 10:09:38;;;;;;;17.98;6.07;;;;;;;15.00;47.92;102478.97;5039751;28;20029;-60
2022/12/01 10:12:13;;;;;;;19.27;7.50;;;;;;;15.02;47.61;102482.41;5056220;28;20036;-61
2022/12/01 10:14:38;;;;;;;20.17;6.93;;;;;;;15.04;48.52;102491.25;5056086;28;20111;-60
2022/12/01 10:17:33;;;;;;;19.45;6.15;;;;;;;15.05;48.79;102483.03;5039884;28;20532;-61
2022/12/01 10:20:20;;;;;;;21.42;8.18;;;;;;;15.08;47.35;102472.00;5022773;28;20440;-61
2022/12/01 10:22:49;;;;;;;20.98;7.18;;;;;;;15.12;48.35;102480.72;5074005;28;20405;-61
2022/12/01 10:25:23;;;;;;;29.10;9.68;;;;;;;15.10;48.31;102463.81;5093692;28;20035;-61
2022/12/01 10:28:21;;;;;;;28.27;10.77;;;;;;;15.07;47.27;102464.88;5075864;28;20108;-60
2022/12/01 10:30:49;;;;;;;33.17;11.07;;;;;;;15.02;48.63;102472.47;5068856;28;20036;-60
2022/12/01 10:33:23;;;;;;;24.35;10.18;;;;;;;14.99;48.64;102472.69;5059062;28;20109;-61
2022/12/01 10:35:49;;;;;;;27.52;11.07;;;;;;;14.99;48.08;102461.91;5075936;28;20027;-60
2022/12/01 10:38:24;;;;;;;30.80;11.55;;;;;;;14.98;47.53;102460.22;5075973;28;20023;-61
2022/12/01 10:40:52;;;;;;;32.33;12.27;;;;;;;14.98;47.43;102456.66;5059235;28;20044;-60
2022/12/01 10:43:17;;;;;;;27.42;10.95;;;;;;;15.03;47.96;102462.53;5059351;28;20040;-61
2022/12/01 10:45:44;;;;;;;23.05;10.65;;;;;;;15.02;48.00;102460.81;5058980;28;20024;-61
2022/12/01 10:48:14;;;;;;;28.13;10.30;;;;;;;15.03;48.89;102458.00;5093486;28;20042;-60
2022/12/01 10:50:42;;;;;;;24.25;10.68;;;;;;;15.02;47.52;102458.09;5093607;28;20477;-60
2022/12/01 10:53:22;;;;;;;21.38;9.20;;;;;;;15.02;47.76;102455.41;5075989;28;20028;-61
2022/12/01 10:55:56;;;;;;;19.85;8.48;;;;;;;15.02;47.19;102460.81;5093380;28;20040;-61
2022/12/01 10:58:22;;;;;;;25.40;11.10;;;;;;;15.00;48.14;102457.38;5075393;28;20021;-61
2022/12/01 11:01:03;;;;;;;22.60;10.30;;;;;;;14.98;47.10;102448.53;5075375;28;20085;-61
2022/12/01 11:03:30;;;;;;;25.88;10.20;;;;;;;14.94;48.45;102447.91;5058689;28;20032;-61
2022/12/01 11:05:58;;;;;;;21.17;9.43;;;;;;;14.93;48.34;102454.31;5058569;28;20032;-61
2022/12/01 11:08:42;;;;;;;24.70;10.50;;;;;;;14.90;48.10;102453.69;5058877;28;20415;-61
2022/12/01 11:11:36;;;;;;;22.80;9.98;;;;;;;14.90;48.74;102450.97;5058704;28;20056;-61
2022/12/01 11:14:16;;;;;;;23.30;9.60;;;;;;;14.87;48.20;102440.41;5075612;28;20040;-61
2022/12/01 11:16:46;;;;;;;23.08;9.48;;;;;;;14.89;48.61;102449.25;5058520;28;20044;-61
2022/12/01 11:19:32;;;;;;;26.58;9.82;;;;;;;14.83;47.18;102434.38;5093482;28;20540;-61
2022/12/01 11:22:00;;;;;;;27.88;12.05;;;;;;;14.87;48.60;102440.41;5075316;28;20039;-61
2022/12/01 11:24:51;;;;;;;27.15;11.20;;;;;;;14.85;47.24;102432.41;5074629;28;20424;-60
2022/12/01 11:27:22;;;;;;;26.55;11.07;;;;;;;14.86;47.75;102425.19;5086121;28;20501;-60
2022/12/01 11:29:49;;;;;;;29.02;10.80;;;;;;;14.91;47.10;102436.50;5075245;28;20424;-61